sensor_id;sensor_type;location;lat;lon;timestamp;P1;durP1;ratioP1;P2;durP2;ratioP2
5483;SDS011;2764;48.794;8.326;2022-09-03T00:00:36;4.23;;;3.37;;
5483;SDS011;2764;48.794;8.326;2022-09-03T00:01:49;9.53;;;4.20;;
5483;SDS011;2764;48.794;8.326;2022-09-03T00:03:19;4.37;;;2.80;;
5483;SDS011;2764;48.794;8.326;2022-09-03T00:04:30;4.00;;;2.97;;
5483;SDS011;2764;48.794;8.326;2022-09-03T00:05:38;3.60;;;3.30;;
5483;SDS011;2764;48.794;8.326;2022-09-03T00:06:47;5.77;;;3.10;;
5483;SDS011;2764;48.794;8.326;2022-09-03T00:08:02;2.83;;;2.73;;
5483;SDS011;2764;48.794;8.326;2022-09-03T00:09:08;3.03;;;2.83;;
5483;SDS011;2764;48.794;8.326;2022-09-03T00:10:20;3.37;;;3.10;;
5483;SDS011;2764;48.794;8.326;2022-09-03T00:13:09;9.50;;;3.20;;
5483;SDS011;2764;48.794;8.326;2022-09-03T00:14:20;5.43;;;3.00;;
5483;SDS011;2764;48.794;8.326;2022-09-03T00:15:25;7.60;;;2.70;;
5483;SDS011;2764;48.794;8.326;2022-09-03T00:16:28;3.40;;;3.20;;
5483;SDS011;2764;48.794;8.326;2022-09-03T00:18:45;3.20;;;3.00;;
5483;SDS011;2764;48.794;8.326;2022-09-03T00:19:53;4.03;;;3.10;;
5483;SDS011;2764;48.794;8.326;2022-09-03T00:21:02;3.37;;;3.27;;
5483;SDS011;2764;48.794;8.326;2022-09-03T00:22:09;3.40;;;3.20;;
5483;SDS011;2764;48.794;8.326;2022-09-03T00:23:21;3.27;;;3.07;;
5483;SDS011;2764;48.794;8.326;2022-09-03T00:24:27;3.20;;;3.00;;
5483;SDS011;2764;48.794;8.326;2022-09-03T00:25:34;6.40;;;3.20;;
5483;SDS011;2764;48.794;8.326;2022-09-03T00:26:45;3.53;;;3.20;;
5483;SDS011;2764;48.794;8.326;2022-09-03T00:27:53;4.63;;;3.80;;
5483;SDS011;2764;48.794;8.326;2022-09-03T00:29:02;3.93;;;3.50;;
5483;SDS011;2764;48.794;8.326;2022-09-03T00:30:11;7.80;;;3.27;;
5483;SDS011;2764;48.794;8.326;2022-09-03T00:31:19;2.97;;;2.63;;
5483;SDS011;2764;48.794;8.326;2022-09-03T00:32:36;3.53;;;3.37;;
5483;SDS011;2764;48.794;8.326;2022-09-03T00:33:40;3.70;;;3.40;;
5483;SDS011;2764;48.794;8.326;2022-09-03T00:34:46;3.27;;;3.07;;
5483;SDS011;2764;48.794;8.326;2022-09-03T00:36:05;3.63;;;3.43;;
5483;SDS011;2764;48.794;8.326;2022-09-03T00:37:15;4.40;;;4.00;;
5483;SDS011;2764;48.794;8.326;2022-09-03T00:38:16;7.17;;;3.70;;
5483;SDS011;2764;48.794;8.326;2022-09-03T00:39:19;3.57;;;3.37;;
5483;SDS011;2764;48.794;8.326;2022-09-03T00:40:31;3.60;;;3.40;;
5483;SDS011;2764;48.794;8.326;2022-09-03T00:43:20;3.50;;;3.30;;
5483;SDS011;2764;48.794;8.326;2022-09-03T00:46:35;5.60;;;4.13;;
5483;SDS011;2764;48.794;8.326;2022-09-03T00:55:02;15.27;;;4.20;;
5483;SDS011;2764;48.794;8.326;2022-09-03T01:00:08;8.40;;;4.30;;
5483;SDS011;2764;48.794;8.326;2022-09-03T01:08:17;4.93;;;4.40;;
5483;SDS011;2764;48.794;8.326;2022-09-03T01:09:45;7.63;;;4.40;;
5483;SDS011;2764;48.794;8.326;2022-09-03T01:12:38;7.93;;;4.33;;
5483;SDS011;2764;48.794;8.326;2022-09-03T01:16:24;5.50;;;4.67;;
5483;SDS011;2764;48.794;8.326;2022-09-03T01:26:45;5.73;;;5.23;;
5483;SDS011;2764;48.794;8.326;2022-09-03T01:28:18;4.67;;;4.27;;
5483;SDS011;2764;48.794;8.326;2022-09-03T01:29:24;9.40;;;5.03;;
5483;SDS011;2764;48.794;8.326;2022-09-03T01:30:43;4.27;;;3.97;;
5483;SDS011;2764;48.794;8.326;2022-09-03T01:34:32;5.10;;;4.70;;
5483;SDS011;2764;48.794;8.326;2022-09-03T01:35:57;4.30;;;4.00;;
5483;SDS011;2764;48.794;8.326;2022-09-03T01:37:06;7.80;;;4.17;;
5483;SDS011;2764;48.794;8.326;2022-09-03T01:44:01;4.77;;;4.37;;
5483;SDS011;2764;48.794;8.326;2022-09-03T01:46:40;4.03;;;3.70;;
5483;SDS011;2764;48.794;8.326;2022-09-03T01:51:26;4.40;;;3.73;;
5483;SDS011;2764;48.794;8.326;2022-09-03T01:52:37;4.43;;;3.77;;
5483;SDS011;2764;48.794;8.326;2022-09-03T01:54:12;4.83;;;3.73;;
5483;SDS011;2764;48.794;8.326;2022-09-03T01:58:05;6.53;;;4.03;;
5483;SDS011;2764;48.794;8.326;2022-09-03T01:59:27;5.40;;;4.07;;
5483;SDS011;2764;48.794;8.326;2022-09-03T02:00:33;4.80;;;4.50;;
5483;SDS011;2764;48.794;8.326;2022-09-03T02:01:54;4.20;;;3.80;;
5483;SDS011;2764;48.794;8.326;2022-09-03T02:03:00;7.43;;;5.00;;
5483;SDS011;2764;48.794;8.326;2022-09-03T02:04:17;4.87;;;4.47;;
5483;SDS011;2764;48.794;8.326;2022-09-03T02:05:24;6.00;;;4.23;;
5483;SDS011;2764;48.794;8.326;2022-09-03T02:06:27;4.47;;;4.07;;
5483;SDS011;2764;48.794;8.326;2022-09-03T02:07:33;7.00;;;4.80;;
5483;SDS011;2764;48.794;8.326;2022-09-03T02:08:40;4.53;;;4.13;;
5483;SDS011;2764;48.794;8.326;2022-09-03T02:09:42;5.20;;;4.70;;
5483;SDS011;2764;48.794;8.326;2022-09-03T02:10:52;5.10;;;4.70;;
5483;SDS011;2764;48.794;8.326;2022-09-03T02:12:15;11.53;;;4.53;;
5483;SDS011;2764;48.794;8.326;2022-09-03T02:13:40;16.60;;;4.63;;
5483;SDS011;2764;48.794;8.326;2022-09-03T02:14:45;5.73;;;5.23;;
5483;SDS011;2764;48.794;8.326;2022-09-03T02:15:47;5.23;;;4.40;;
5483;SDS011;2764;48.794;8.326;2022-09-03T02:16:52;11.90;;;5.27;;
5483;SDS011;2764;48.794;8.326;2022-09-03T02:17:59;5.13;;;4.63;;
5483;SDS011;2764;48.794;8.326;2022-09-03T02:19:05;5.00;;;4.60;;
5483;SDS011;2764;48.794;8.326;2022-09-03T02:20:11;6.50;;;4.97;;
5483;SDS011;2764;48.794;8.326;2022-09-03T02:21:20;5.60;;;4.23;;
5483;SDS011;2764;48.794;8.326;2022-09-03T02:22:24;8.37;;;4.73;;
5483;SDS011;2764;48.794;8.326;2022-09-03T02:23:26;4.13;;;3.80;;
5483;SDS011;2764;48.794;8.326;2022-09-03T02:24:28;3.60;;;3.27;;
5483;SDS011;2764;48.794;8.326;2022-09-03T02:25:37;5.43;;;4.20;;
5483;SDS011;2764;48.794;8.326;2022-09-03T02:26:44;5.57;;;3.97;;
5483;SDS011;2764;48.794;8.326;2022-09-03T02:27:47;4.43;;;4.00;;
5483;SDS011;2764;48.794;8.326;2022-09-03T02:28:51;4.50;;;4.10;;
5483;SDS011;2764;48.794;8.326;2022-09-03T02:29:54;5.43;;;4.17;;
5483;SDS011;2764;48.794;8.326;2022-09-03T02:30:57;8.20;;;4.20;;
5483;SDS011;2764;48.794;8.326;2022-09-03T02:31:58;6.07;;;4.43;;
5483;SDS011;2764;48.794;8.326;2022-09-03T02:33:00;9.83;;;4.63;;
5483;SDS011;2764;48.794;8.326;2022-09-03T02:34:03;4.20;;;3.80;;
5483;SDS011;2764;48.794;8.326;2022-09-03T02:35:05;10.90;;;4.93;;
5483;SDS011;2764;48.794;8.326;2022-09-03T02:36:08;5.13;;;3.70;;
5483;SDS011;2764;48.794;8.326;2022-09-03T02:37:13;6.47;;;4.47;;
5483;SDS011;2764;48.794;8.326;2022-09-03T02:38:19;4.10;;;3.90;;
5483;SDS011;2764;48.794;8.326;2022-09-03T02:39:23;6.30;;;3.70;;
5483;SDS011;2764;48.794;8.326;2022-09-03T02:40:24;11.23;;;3.60;;
5483;SDS011;2764;48.794;8.326;2022-09-03T02:41:26;3.97;;;3.77;;
5483;SDS011;2764;48.794;8.326;2022-09-03T02:42:28;4.30;;;3.90;;
5483;SDS011;2764;48.794;8.326;2022-09-03T02:43:31;4.20;;;3.80;;
5483;SDS011;2764;48.794;8.326;2022-09-03T02:44:36;8.60;;;4.53;;
5483;SDS011;2764;48.794;8.326;2022-09-03T02:45:44;7.70;;;4.67;;
5483;SDS011;2764;48.794;8.326;2022-09-03T02:46:53;5.37;;;3.67;;
5483;SDS011;2764;48.794;8.326;2022-09-03T02:48:00;5.47;;;4.50;;
5483;SDS011;2764;48.794;8.326;2022-09-03T02:49:01;4.70;;;4.30;;
5483;SDS011;2764;48.794;8.326;2022-09-03T02:50:03;4.77;;;4.37;;
5483;SDS011;2764;48.794;8.326;2022-09-03T02:51:05;10.37;;;4.80;;
5483;SDS011;2764;48.794;8.326;2022-09-03T02:52:14;4.30;;;4.10;;
5483;SDS011;2764;48.794;8.326;2022-09-03T02:53:17;4.00;;;3.60;;
5483;SDS011;2764;48.794;8.326;2022-09-03T02:54:18;4.63;;;4.23;;
5483;SDS011;2764;48.794;8.326;2022-09-03T02:55:21;3.87;;;3.57;;
5483;SDS011;2764;48.794;8.326;2022-09-03T02:56:23;4.40;;;4.00;;
5483;SDS011;2764;48.794;8.326;2022-09-03T02:57:27;8.90;;;3.47;;
5483;SDS011;2764;48.794;8.326;2022-09-03T02:58:29;3.93;;;3.63;;
5483;SDS011;2764;48.794;8.326;2022-09-03T02:59:32;4.63;;;4.20;;
5483;SDS011;2764;48.794;8.326;2022-09-03T03:00:34;3.90;;;3.67;;
5483;SDS011;2764;48.794;8.326;2022-09-03T03:01:37;4.47;;;4.17;;
5483;SDS011;2764;48.794;8.326;2022-09-03T03:02:42;5.83;;;3.70;;
5483;SDS011;2764;48.794;8.326;2022-09-03T03:03:43;6.17;;;3.93;;
5483;SDS011;2764;48.794;8.326;2022-09-03T03:04:45;4.37;;;4.07;;
5483;SDS011;2764;48.794;8.326;2022-09-03T03:05:51;4.50;;;4.20;;
5483;SDS011;2764;48.794;8.326;2022-09-03T03:06:56;6.67;;;4.27;;
5483;SDS011;2764;48.794;8.326;2022-09-03T03:07:58;4.00;;;3.70;;
5483;SDS011;2764;48.794;8.326;2022-09-03T03:09:01;4.30;;;3.90;;
5483;SDS011;2764;48.794;8.326;2022-09-03T03:10:06;4.27;;;3.97;;
5483;SDS011;2764;48.794;8.326;2022-09-03T03:11:08;4.03;;;3.83;;
5483;SDS011;2764;48.794;8.326;2022-09-03T03:12:10;5.27;;;3.77;;
5483;SDS011;2764;48.794;8.326;2022-09-03T03:13:12;4.63;;;4.33;;
5483;SDS011;2764;48.794;8.326;2022-09-03T03:14:13;6.10;;;4.30;;
5483;SDS011;2764;48.794;8.326;2022-09-03T03:15:15;4.70;;;4.40;;
5483;SDS011;2764;48.794;8.326;2022-09-03T03:16:17;4.90;;;4.50;;
5483;SDS011;2764;48.794;8.326;2022-09-03T03:17:19;4.27;;;4.07;;
5483;SDS011;2764;48.794;8.326;2022-09-03T03:18:20;5.20;;;4.60;;
5483;SDS011;2764;48.794;8.326;2022-09-03T03:19:22;4.27;;;3.80;;
5483;SDS011;2764;48.794;8.326;2022-09-03T03:20:24;4.40;;;4.10;;
5483;SDS011;2764;48.794;8.326;2022-09-03T03:21:25;5.77;;;4.20;;
5483;SDS011;2764;48.794;8.326;2022-09-03T03:22:28;5.80;;;4.10;;
5483;SDS011;2764;48.794;8.326;2022-09-03T03:23:30;6.83;;;4.77;;
5483;SDS011;2764;48.794;8.326;2022-09-03T03:24:32;5.90;;;5.03;;
5483;SDS011;2764;48.794;8.326;2022-09-03T03:25:35;12.80;;;4.50;;
5483;SDS011;2764;48.794;8.326;2022-09-03T03:26:37;4.67;;;4.43;;
5483;SDS011;2764;48.794;8.326;2022-09-03T03:27:39;5.90;;;5.40;;
5483;SDS011;2764;48.794;8.326;2022-09-03T03:28:42;6.43;;;5.07;;
5483;SDS011;2764;48.794;8.326;2022-09-03T03:29:44;4.40;;;4.20;;
5483;SDS011;2764;48.794;8.326;2022-09-03T03:30:45;5.10;;;4.60;;
5483;SDS011;2764;48.794;8.326;2022-09-03T03:31:48;7.37;;;5.17;;
5483;SDS011;2764;48.794;8.326;2022-09-03T03:32:51;5.03;;;4.60;;
5483;SDS011;2764;48.794;8.326;2022-09-03T03:33:56;4.70;;;4.30;;
5483;SDS011;2764;48.794;8.326;2022-09-03T03:34:59;5.97;;;4.53;;
5483;SDS011;2764;48.794;8.326;2022-09-03T03:36:13;9.93;;;4.80;;
5483;SDS011;2764;48.794;8.326;2022-09-03T03:37:16;4.33;;;3.93;;
5483;SDS011;2764;48.794;8.326;2022-09-03T03:38:17;4.33;;;4.13;;
5483;SDS011;2764;48.794;8.326;2022-09-03T03:39:19;4.87;;;4.43;;
5483;SDS011;2764;48.794;8.326;2022-09-03T03:40:21;7.33;;;4.60;;
5483;SDS011;2764;48.794;8.326;2022-09-03T03:41:24;6.07;;;4.47;;
5483;SDS011;2764;48.794;8.326;2022-09-03T03:42:27;9.73;;;4.90;;
5483;SDS011;2764;48.794;8.326;2022-09-03T03:43:28;5.17;;;4.30;;
5483;SDS011;2764;48.794;8.326;2022-09-03T03:44:30;4.73;;;4.10;;
5483;SDS011;2764;48.794;8.326;2022-09-03T03:45:31;5.27;;;4.60;;
5483;SDS011;2764;48.794;8.326;2022-09-03T03:46:34;4.30;;;4.10;;
5483;SDS011;2764;48.794;8.326;2022-09-03T03:47:38;6.90;;;4.47;;
5483;SDS011;2764;48.794;8.326;2022-09-03T03:48:39;9.60;;;5.10;;
5483;SDS011;2764;48.794;8.326;2022-09-03T03:49:43;4.80;;;4.50;;
5483;SDS011;2764;48.794;8.326;2022-09-03T03:50:45;5.00;;;4.50;;
5483;SDS011;2764;48.794;8.326;2022-09-03T03:51:47;7.30;;;4.23;;
5483;SDS011;2764;48.794;8.326;2022-09-03T03:52:49;4.47;;;4.27;;
5483;SDS011;2764;48.794;8.326;2022-09-03T03:53:54;6.60;;;4.97;;
5483;SDS011;2764;48.794;8.326;2022-09-03T03:54:57;5.00;;;4.60;;
5483;SDS011;2764;48.794;8.326;2022-09-03T03:56:00;11.70;;;4.70;;
5483;SDS011;2764;48.794;8.326;2022-09-03T03:57:03;14.20;;;5.07;;
5483;SDS011;2764;48.794;8.326;2022-09-03T03:58:04;11.70;;;4.83;;
5483;SDS011;2764;48.794;8.326;2022-09-03T03:59:06;7.30;;;4.77;;
5483;SDS011;2764;48.794;8.326;2022-09-03T04:00:08;5.33;;;4.87;;
5483;SDS011;2764;48.794;8.326;2022-09-03T04:01:11;5.80;;;5.40;;
5483;SDS011;2764;48.794;8.326;2022-09-03T04:02:15;7.70;;;6.00;;
5483;SDS011;2764;48.794;8.326;2022-09-03T04:03:18;5.80;;;5.40;;
5483;SDS011;2764;48.794;8.326;2022-09-03T04:04:20;4.93;;;4.53;;
5483;SDS011;2764;48.794;8.326;2022-09-03T04:05:21;10.30;;;4.87;;
5483;SDS011;2764;48.794;8.326;2022-09-03T04:06:24;4.77;;;4.40;;
5483;SDS011;2764;48.794;8.326;2022-09-03T04:07:26;4.73;;;4.53;;
5483;SDS011;2764;48.794;8.326;2022-09-03T04:08:28;5.20;;;4.70;;
5483;SDS011;2764;48.794;8.326;2022-09-03T04:09:30;9.83;;;4.17;;
5483;SDS011;2764;48.794;8.326;2022-09-03T04:10:31;4.80;;;4.13;;
5483;SDS011;2764;48.794;8.326;2022-09-03T04:11:33;6.23;;;5.10;;
5483;SDS011;2764;48.794;8.326;2022-09-03T04:12:34;4.23;;;4.03;;
5483;SDS011;2764;48.794;8.326;2022-09-03T04:13:37;5.07;;;4.67;;
5483;SDS011;2764;48.794;8.326;2022-09-03T04:14:40;4.40;;;4.20;;
5483;SDS011;2764;48.794;8.326;2022-09-03T04:15:43;4.30;;;4.03;;
5483;SDS011;2764;48.794;8.326;2022-09-03T04:16:45;5.40;;;4.83;;
5483;SDS011;2764;48.794;8.326;2022-09-03T04:17:47;6.10;;;4.70;;
5483;SDS011;2764;48.794;8.326;2022-09-03T04:18:49;4.33;;;4.00;;
5483;SDS011;2764;48.794;8.326;2022-09-03T04:19:51;4.30;;;3.90;;
5483;SDS011;2764;48.794;8.326;2022-09-03T04:20:52;7.20;;;4.57;;
5483;SDS011;2764;48.794;8.326;2022-09-03T04:21:59;8.60;;;4.13;;
5483;SDS011;2764;48.794;8.326;2022-09-03T04:23:00;7.70;;;4.33;;
5483;SDS011;2764;48.794;8.326;2022-09-03T04:24:03;4.87;;;4.47;;
5483;SDS011;2764;48.794;8.326;2022-09-03T04:25:05;7.93;;;5.23;;
5483;SDS011;2764;48.794;8.326;2022-09-03T04:26:07;4.27;;;4.07;;
5483;SDS011;2764;48.794;8.326;2022-09-03T04:27:10;4.40;;;4.20;;
5483;SDS011;2764;48.794;8.326;2022-09-03T04:28:11;15.07;;;4.40;;
5483;SDS011;2764;48.794;8.326;2022-09-03T04:29:15;7.10;;;4.73;;
5483;SDS011;2764;48.794;8.326;2022-09-03T04:30:16;5.10;;;4.70;;
5483;SDS011;2764;48.794;8.326;2022-09-03T04:31:21;10.10;;;6.67;;
5483;SDS011;2764;48.794;8.326;2022-09-03T04:32:22;16.17;;;6.83;;
5483;SDS011;2764;48.794;8.326;2022-09-03T04:33:42;7.23;;;6.40;;
5483;SDS011;2764;48.794;8.326;2022-09-03T04:34:44;8.97;;;7.20;;
5483;SDS011;2764;48.794;8.326;2022-09-03T04:35:45;9.80;;;7.33;;
5483;SDS011;2764;48.794;8.326;2022-09-03T04:36:47;7.83;;;6.87;;
5483;SDS011;2764;48.794;8.326;2022-09-03T04:37:53;9.33;;;6.80;;
5483;SDS011;2764;48.794;8.326;2022-09-03T04:38:57;8.03;;;7.33;;
5483;SDS011;2764;48.794;8.326;2022-09-03T04:39:59;7.80;;;7.00;;
5483;SDS011;2764;48.794;8.326;2022-09-03T04:41:01;11.50;;;7.47;;
5483;SDS011;2764;48.794;8.326;2022-09-03T04:42:03;9.40;;;8.50;;
5483;SDS011;2764;48.794;8.326;2022-09-03T04:43:05;11.10;;;10.00;;
5483;SDS011;2764;48.794;8.326;2022-09-03T04:44:06;13.53;;;10.20;;
5483;SDS011;2764;48.794;8.326;2022-09-03T04:45:09;16.60;;;11.03;;
5483;SDS011;2764;48.794;8.326;2022-09-03T04:46:12;14.63;;;10.23;;
5483;SDS011;2764;48.794;8.326;2022-09-03T04:47:18;19.60;;;11.60;;
5483;SDS011;2764;48.794;8.326;2022-09-03T04:48:20;11.83;;;10.60;;
5483;SDS011;2764;48.794;8.326;2022-09-03T04:49:21;12.33;;;11.00;;
5483;SDS011;2764;48.794;8.326;2022-09-03T04:50:25;11.80;;;10.70;;
5483;SDS011;2764;48.794;8.326;2022-09-03T04:51:28;14.73;;;9.80;;
5483;SDS011;2764;48.794;8.326;2022-09-03T04:52:31;14.67;;;10.40;;
5483;SDS011;2764;48.794;8.326;2022-09-03T04:53:34;11.70;;;10.50;;
5483;SDS011;2764;48.794;8.326;2022-09-03T04:54:37;13.40;;;12.10;;
5483;SDS011;2764;48.794;8.326;2022-09-03T04:55:39;27.53;;;13.23;;
5483;SDS011;2764;48.794;8.326;2022-09-03T04:56:40;18.50;;;12.53;;
5483;SDS011;2764;48.794;8.326;2022-09-03T04:57:42;13.97;;;12.30;;
5483;SDS011;2764;48.794;8.326;2022-09-03T04:58:44;14.60;;;12.40;;
5483;SDS011;2764;48.794;8.326;2022-09-03T04:59:51;14.73;;;13.10;;
5483;SDS011;2764;48.794;8.326;2022-09-03T05:00:52;16.60;;;13.70;;
5483;SDS011;2764;48.794;8.326;2022-09-03T05:01:54;20.00;;;15.47;;
5483;SDS011;2764;48.794;8.326;2022-09-03T05:02:59;19.40;;;15.23;;
5483;SDS011;2764;48.794;8.326;2022-09-03T05:04:01;17.60;;;15.90;;
5483;SDS011;2764;48.794;8.326;2022-09-03T05:05:04;14.30;;;12.90;;
5483;SDS011;2764;48.794;8.326;2022-09-03T05:06:06;16.30;;;14.70;;
5483;SDS011;2764;48.794;8.326;2022-09-03T05:07:10;17.27;;;15.43;;
5483;SDS011;2764;48.794;8.326;2022-09-03T05:08:11;29.63;;;15.47;;
5483;SDS011;2764;48.794;8.326;2022-09-03T05:09:13;14.23;;;12.93;;
5483;SDS011;2764;48.794;8.326;2022-09-03T05:10:16;17.10;;;14.90;;
5483;SDS011;2764;48.794;8.326;2022-09-03T05:11:20;16.10;;;14.40;;
5483;SDS011;2764;48.794;8.326;2022-09-03T05:12:23;16.87;;;15.17;;
5483;SDS011;2764;48.794;8.326;2022-09-03T05:13:24;16.10;;;14.40;;
5483;SDS011;2764;48.794;8.326;2022-09-03T05:14:28;16.50;;;14.77;;
5483;SDS011;2764;48.794;8.326;2022-09-03T05:15:30;14.87;;;13.57;;
5483;SDS011;2764;48.794;8.326;2022-09-03T05:16:36;17.10;;;15.37;;
5483;SDS011;2764;48.794;8.326;2022-09-03T05:17:38;17.20;;;15.40;;
5483;SDS011;2764;48.794;8.326;2022-09-03T05:18:40;20.53;;;17.03;;
5483;SDS011;2764;48.794;8.326;2022-09-03T05:19:42;19.63;;;17.60;;
5483;SDS011;2764;48.794;8.326;2022-09-03T05:20:44;20.10;;;16.90;;
5483;SDS011;2764;48.794;8.326;2022-09-03T05:21:46;18.53;;;16.10;;
5483;SDS011;2764;48.794;8.326;2022-09-03T05:22:47;19.80;;;17.60;;
5483;SDS011;2764;48.794;8.326;2022-09-03T05:23:49;19.87;;;17.77;;
5483;SDS011;2764;48.794;8.326;2022-09-03T05:24:52;22.50;;;18.40;;
5483;SDS011;2764;48.794;8.326;2022-09-03T05:25:54;21.70;;;15.87;;
5483;SDS011;2764;48.794;8.326;2022-09-03T05:26:58;22.50;;;15.47;;
5483;SDS011;2764;48.794;8.326;2022-09-03T05:27:59;14.27;;;12.87;;
5483;SDS011;2764;48.794;8.326;2022-09-03T05:29:02;15.57;;;13.90;;
5483;SDS011;2764;48.794;8.326;2022-09-03T05:30:08;17.13;;;13.87;;
5483;SDS011;2764;48.794;8.326;2022-09-03T05:32:13;15.23;;;13.63;;
5483;SDS011;2764;48.794;8.326;2022-09-03T05:33:16;17.63;;;13.80;;
5483;SDS011;2764;48.794;8.326;2022-09-03T05:34:18;14.87;;;13.50;;
5483;SDS011;2764;48.794;8.326;2022-09-03T05:35:19;14.83;;;13.07;;
5483;SDS011;2764;48.794;8.326;2022-09-03T05:36:27;17.73;;;14.13;;
5483;SDS011;2764;48.794;8.326;2022-09-03T05:37:31;13.00;;;11.80;;
5483;SDS011;2764;48.794;8.326;2022-09-03T05:38:33;15.90;;;14.23;;
5483;SDS011;2764;48.794;8.326;2022-09-03T05:39:35;17.37;;;14.50;;
5483;SDS011;2764;48.794;8.326;2022-09-03T05:40:36;16.30;;;14.87;;
5483;SDS011;2764;48.794;8.326;2022-09-03T05:41:38;21.90;;;14.63;;
5483;SDS011;2764;48.794;8.326;2022-09-03T05:42:40;17.03;;;15.23;;
5483;SDS011;2764;48.794;8.326;2022-09-03T05:43:41;15.40;;;13.90;;
5483;SDS011;2764;48.794;8.326;2022-09-03T05:44:43;16.67;;;14.77;;
5483;SDS011;2764;48.794;8.326;2022-09-03T05:45:45;14.80;;;13.30;;
5483;SDS011;2764;48.794;8.326;2022-09-03T05:46:46;16.20;;;14.63;;
5483;SDS011;2764;48.794;8.326;2022-09-03T05:47:48;16.40;;;14.07;;
5483;SDS011;2764;48.794;8.326;2022-09-03T05:48:50;13.93;;;12.73;;
5483;SDS011;2764;48.794;8.326;2022-09-03T05:49:51;15.00;;;13.50;;
5483;SDS011;2764;48.794;8.326;2022-09-03T05:51:11;14.40;;;12.97;;
5483;SDS011;2764;48.794;8.326;2022-09-03T05:52:17;15.70;;;14.20;;
5483;SDS011;2764;48.794;8.326;2022-09-03T05:53:21;16.53;;;13.70;;
5483;SDS011;2764;48.794;8.326;2022-09-03T05:54:23;17.40;;;13.43;;
5483;SDS011;2764;48.794;8.326;2022-09-03T05:55:25;13.37;;;12.13;;
5483;SDS011;2764;48.794;8.326;2022-09-03T05:56:29;15.93;;;12.67;;
5483;SDS011;2764;48.794;8.326;2022-09-03T05:57:32;15.57;;;12.50;;
5483;SDS011;2764;48.794;8.326;2022-09-03T05:58:34;15.93;;;13.80;;
5483;SDS011;2764;48.794;8.326;2022-09-03T05:59:39;19.57;;;14.67;;
5483;SDS011;2764;48.794;8.326;2022-09-03T06:00:41;16.33;;;14.73;;
5483;SDS011;2764;48.794;8.326;2022-09-03T06:01:43;15.50;;;13.70;;
5483;SDS011;2764;48.794;8.326;2022-09-03T06:02:52;16.70;;;14.80;;
5483;SDS011;2764;48.794;8.326;2022-09-03T06:04:59;16.90;;;15.27;;
5483;SDS011;2764;48.794;8.326;2022-09-03T06:06:01;17.43;;;15.63;;
5483;SDS011;2764;48.794;8.326;2022-09-03T06:07:05;17.90;;;15.47;;
5483;SDS011;2764;48.794;8.326;2022-09-03T06:08:06;18.77;;;15.77;;
5483;SDS011;2764;48.794;8.326;2022-09-03T06:09:14;15.10;;;13.50;;
5483;SDS011;2764;48.794;8.326;2022-09-03T06:10:18;15.90;;;14.03;;
5483;SDS011;2764;48.794;8.326;2022-09-03T06:11:26;14.40;;;12.87;;
5483;SDS011;2764;48.794;8.326;2022-09-03T06:12:29;16.53;;;14.80;;
5483;SDS011;2764;48.794;8.326;2022-09-03T06:13:31;15.03;;;13.70;;
5483;SDS011;2764;48.794;8.326;2022-09-03T06:14:34;18.30;;;13.67;;
5483;SDS011;2764;48.794;8.326;2022-09-03T06:15:36;17.27;;;14.30;;
5483;SDS011;2764;48.794;8.326;2022-09-03T06:16:38;15.57;;;13.70;;
5483;SDS011;2764;48.794;8.326;2022-09-03T06:17:42;18.60;;;13.90;;
5483;SDS011;2764;48.794;8.326;2022-09-03T06:18:43;16.03;;;14.30;;
5483;SDS011;2764;48.794;8.326;2022-09-03T06:19:45;15.47;;;13.87;;
5483;SDS011;2764;48.794;8.326;2022-09-03T06:20:56;13.97;;;12.67;;
5483;SDS011;2764;48.794;8.326;2022-09-03T06:22:06;14.20;;;12.90;;
5483;SDS011;2764;48.794;8.326;2022-09-03T06:23:07;15.80;;;14.23;;
5483;SDS011;2764;48.794;8.326;2022-09-03T06:24:10;16.70;;;14.20;;
5483;SDS011;2764;48.794;8.326;2022-09-03T06:25:15;19.23;;;15.23;;
5483;SDS011;2764;48.794;8.326;2022-09-03T06:26:17;18.47;;;15.53;;
5483;SDS011;2764;48.794;8.326;2022-09-03T06:27:20;20.60;;;14.37;;
5483;SDS011;2764;48.794;8.326;2022-09-03T06:28:22;16.23;;;14.27;;
5483;SDS011;2764;48.794;8.326;2022-09-03T06:29:26;16.27;;;13.83;;
5483;SDS011;2764;48.794;8.326;2022-09-03T06:30:28;18.73;;;15.63;;
5483;SDS011;2764;48.794;8.326;2022-09-03T06:31:30;14.03;;;12.37;;
5483;SDS011;2764;48.794;8.326;2022-09-03T06:32:32;14.63;;;12.27;;
5483;SDS011;2764;48.794;8.326;2022-09-03T06:33:34;18.13;;;11.33;;
5483;SDS011;2764;48.794;8.326;2022-09-03T06:34:37;14.13;;;12.63;;
5483;SDS011;2764;48.794;8.326;2022-09-03T06:35:38;14.00;;;12.50;;
5483;SDS011;2764;48.794;8.326;2022-09-03T06:36:44;19.63;;;13.60;;
5483;SDS011;2764;48.794;8.326;2022-09-03T06:37:46;15.03;;;12.20;;
5483;SDS011;2764;48.794;8.326;2022-09-03T06:38:50;12.97;;;11.87;;
5483;SDS011;2764;48.794;8.326;2022-09-03T06:39:56;14.03;;;12.60;;
5483;SDS011;2764;48.794;8.326;2022-09-03T06:40:58;12.33;;;11.13;;
5483;SDS011;2764;48.794;8.326;2022-09-03T06:42:04;13.37;;;12.07;;
5483;SDS011;2764;48.794;8.326;2022-09-03T06:43:06;11.50;;;10.30;;
5483;SDS011;2764;48.794;8.326;2022-09-03T06:44:07;18.27;;;11.57;;
5483;SDS011;2764;48.794;8.326;2022-09-03T06:45:12;11.60;;;10.57;;
5483;SDS011;2764;48.794;8.326;2022-09-03T06:46:14;11.70;;;10.47;;
5483;SDS011;2764;48.794;8.326;2022-09-03T06:47:18;11.43;;;10.33;;
5483;SDS011;2764;48.794;8.326;2022-09-03T06:48:20;13.20;;;11.07;;
5483;SDS011;2764;48.794;8.326;2022-09-03T06:49:21;15.27;;;10.23;;
5483;SDS011;2764;48.794;8.326;2022-09-03T06:50:26;10.67;;;9.67;;
5483;SDS011;2764;48.794;8.326;2022-09-03T06:51:34;13.00;;;11.60;;
5483;SDS011;2764;48.794;8.326;2022-09-03T06:52:38;12.83;;;11.73;;
5483;SDS011;2764;48.794;8.326;2022-09-03T06:53:40;12.33;;;11.17;;
5483;SDS011;2764;48.794;8.326;2022-09-03T06:54:43;11.73;;;10.53;;
5483;SDS011;2764;48.794;8.326;2022-09-03T06:55:51;12.73;;;11.53;;
5483;SDS011;2764;48.794;8.326;2022-09-03T06:56:57;14.77;;;13.17;;
5483;SDS011;2764;48.794;8.326;2022-09-03T06:57:59;14.13;;;12.57;;
5483;SDS011;2764;48.794;8.326;2022-09-03T06:59:08;14.83;;;13.37;;
5483;SDS011;2764;48.794;8.326;2022-09-03T07:00:12;15.80;;;13.50;;
5483;SDS011;2764;48.794;8.326;2022-09-03T07:02:16;17.80;;;12.53;;
5483;SDS011;2764;48.794;8.326;2022-09-03T07:03:19;12.20;;;11.00;;
5483;SDS011;2764;48.794;8.326;2022-09-03T07:04:21;10.00;;;9.07;;
5483;SDS011;2764;48.794;8.326;2022-09-03T07:05:25;12.83;;;9.10;;
5483;SDS011;2764;48.794;8.326;2022-09-03T07:06:29;10.40;;;9.60;;
5483;SDS011;2764;48.794;8.326;2022-09-03T07:07:37;9.23;;;8.43;;
5483;SDS011;2764;48.794;8.326;2022-09-03T07:08:39;10.73;;;9.73;;
5483;SDS011;2764;48.794;8.326;2022-09-03T07:09:42;10.00;;;8.97;;
5483;SDS011;2764;48.794;8.326;2022-09-03T07:10:48;9.90;;;9.10;;
5483;SDS011;2764;48.794;8.326;2022-09-03T07:11:51;11.67;;;8.63;;
5483;SDS011;2764;48.794;8.326;2022-09-03T07:12:53;7.90;;;7.30;;
5483;SDS011;2764;48.794;8.326;2022-09-03T07:13:56;8.17;;;7.50;;
5483;SDS011;2764;48.794;8.326;2022-09-03T07:14:58;9.43;;;8.50;;
5483;SDS011;2764;48.794;8.326;2022-09-03T07:16:01;7.07;;;6.47;;
5483;SDS011;2764;48.794;8.326;2022-09-03T07:17:07;8.57;;;6.93;;
5483;SDS011;2764;48.794;8.326;2022-09-03T07:18:09;7.57;;;6.97;;
5483;SDS011;2764;48.794;8.326;2022-09-03T07:19:11;8.53;;;7.63;;
5483;SDS011;2764;48.794;8.326;2022-09-03T07:20:13;7.17;;;6.47;;
5483;SDS011;2764;48.794;8.326;2022-09-03T07:21:17;7.07;;;6.43;;
5483;SDS011;2764;48.794;8.326;2022-09-03T07:22:20;10.43;;;6.37;;
5483;SDS011;2764;48.794;8.326;2022-09-03T07:23:26;6.87;;;6.27;;
5483;SDS011;2764;48.794;8.326;2022-09-03T07:24:29;6.73;;;6.23;;
5483;SDS011;2764;48.794;8.326;2022-09-03T07:25:30;8.03;;;6.90;;
5483;SDS011;2764;48.794;8.326;2022-09-03T07:26:33;7.10;;;6.40;;
5483;SDS011;2764;48.794;8.326;2022-09-03T07:27:37;14.07;;;6.63;;
5483;SDS011;2764;48.794;8.326;2022-09-03T07:28:39;6.80;;;6.03;;
5483;SDS011;2764;48.794;8.326;2022-09-03T07:29:42;8.77;;;6.47;;
5483;SDS011;2764;48.794;8.326;2022-09-03T07:30:43;8.33;;;7.53;;
5483;SDS011;2764;48.794;8.326;2022-09-03T07:31:45;8.20;;;7.50;;
5483;SDS011;2764;48.794;8.326;2022-09-03T07:32:46;7.30;;;6.80;;
5483;SDS011;2764;48.794;8.326;2022-09-03T07:33:54;12.80;;;8.00;;
5483;SDS011;2764;48.794;8.326;2022-09-03T07:34:56;13.10;;;9.30;;